Capitol Logistics 2120

Operating for AJT



KCVG
Cincinnati/Northern Kentucky International Airport
Covington, Kentucky
KIAH
George Bush Intcntl/Houston Airport
Houston, Texas

Activity Log

Date Flight Route Aircraft Duration
No Flights Yet

Route Details

Aircraft Information
Primary: Boeing 767-300BDSF
Backup: Airbus A300-600F
Route Data
Distance: 758nm
Duration: 1h 37m
Recm'd Route: INDIE7 TPAKK LIT J131 HUMBO J131 PENBE J131 PXV SARGO3
Origin Wx: KCVG 020452Z 34006KT 10SM CLR 18/12 A3007 RMK AO2 SLP174 T01830122 402720139
Dest. Wx: KIAH 020453Z 21008KT 10SM FEW250 29/24 A3001 RMK AO2 SLP162 T02940239
Notes: